Terminal Aerodrome Forecast
Issued by NWS Lubbock, TX

Current Version | Previous Version | Text Only | Print | Product List | Glossary On
Versions: 1 2 3 4 5 6 7 8 9 10 11 12 13 14 15 16
000
FTUS44 KLUB 251741
TAFLBB
TAF
KLBB 251741Z 2518/2618 27020G30KT P6SM FEW150 SCT250
     FM260100 23015KT P6SM SCT250
     FM260900 27011KT P6SM SCT250
     FM261500 29016G24KT P6SM SCT250=

USA.gov is the U.S. government's official web portal to all federal, state and local government web resources and services.